createdAt,value
2018-03-29T00:00:10.562Z,2.70
2018-03-29T00:02:36.966Z,2.70
2018-03-29T00:05:03.975Z,2.70
2018-03-29T00:07:30.207Z,2.70
2018-03-29T00:09:56.453Z,2.70
2018-03-29T00:12:22.685Z,2.60
2018-03-29T00:14:48.912Z,2.60
2018-03-29T00:17:15.166Z,2.60
2018-03-29T00:19:42.164Z,2.60
2018-03-29T00:22:08.405Z,2.50
2018-03-29T00:24:34.662Z,2.50
2018-03-29T00:27:00.953Z,2.50
2018-03-29T00:29:27.192Z,2.40
2018-03-29T00:31:53.414Z,2.50
2018-03-29T00:34:19.786Z,2.40
2018-03-29T00:36:46.746Z,2.40
2018-03-29T00:39:13.680Z,2.40
2018-03-29T00:41:40.654Z,2.40
2018-03-29T00:44:06.866Z,2.40
2018-03-29T00:46:33.986Z,2.40
2018-03-29T00:49:00.213Z,2.40
2018-03-29T00:51:26.431Z,2.40
2018-03-29T00:53:52.665Z,2.30
2018-03-29T00:56:18.920Z,2.30
2018-03-29T00:58:45.876Z,2.30
2018-03-29T01:01:12.818Z,2.30
2018-03-29T01:03:39.782Z,2.20
2018-03-29T01:06:06.213Z,2.20
2018-03-29T01:08:32.490Z,2.20
2018-03-29T01:10:58.906Z,2.30
2018-03-29T01:13:26.399Z,2.30
2018-03-29T01:15:53.401Z,2.30
2018-03-29T01:18:19.793Z,2.20
2018-03-29T01:20:46.793Z,2.30
2018-03-29T01:23:13.130Z,2.30
2018-03-29T01:25:39.791Z,2.30
2018-03-29T01:28:06.048Z,2.30
2018-03-29T01:30:33.119Z,2.30
2018-03-29T01:32:59.348Z,2.30
2018-03-29T01:35:25.654Z,2.30
2018-03-29T01:37:52.974Z,2.40
2018-03-29T01:40:19.204Z,2.40
2018-03-29T01:42:45.548Z,2.50
2018-03-29T01:45:11.884Z,2.50
2018-03-29T01:47:38.963Z,2.50
2018-03-29T01:50:05.211Z,2.50
2018-03-29T01:52:31.459Z,2.50
2018-03-29T01:54:57.818Z,2.40
2018-03-29T01:57:24.154Z,2.40
2018-03-29T01:59:51.647Z,2.50
2018-03-29T02:02:18.049Z,2.50
2018-03-29T02:04:44.305Z,2.50
2018-03-29T02:07:10.533Z,2.50
2018-03-29T02:09:36.738Z,2.50
2018-03-29T02:12:04.310Z,2.60
2018-03-29T02:14:30.525Z,2.50
2018-03-29T02:16:57.494Z,2.60
2018-03-29T02:19:23.721Z,2.60
2018-03-29T02:21:50.727Z,2.60
2018-03-29T02:24:16.966Z,2.60
2018-03-29T02:26:43.169Z,2.70
2018-03-29T02:29:09.368Z,2.70
2018-03-29T02:31:35.618Z,2.70
2018-03-29T02:34:01.856Z,2.70
2018-03-29T02:36:28.075Z,2.70
2018-03-29T02:38:54.400Z,2.80
2018-03-29T02:41:20.646Z,2.80
2018-03-29T02:43:46.934Z,2.80
2018-03-29T02:46:13.151Z,2.80
2018-03-29T02:48:40.111Z,2.80
2018-03-29T02:51:06.444Z,2.90
2018-03-29T02:53:32.669Z,2.90
2018-03-29T02:55:58.995Z,2.90
2018-03-29T02:58:26.376Z,2.90
2018-03-29T03:00:52.639Z,2.90
2018-03-29T03:03:18.862Z,2.90
2018-03-29T03:05:45.088Z,2.90
2018-03-29T03:08:11.294Z,2.90
2018-03-29T03:10:37.522Z,3.00
2018-03-29T03:13:03.769Z,3.00
2018-03-29T03:15:29.989Z,3.00
2018-03-29T03:17:56.225Z,3.00
2018-03-29T03:20:22.528Z,3.00
2018-03-29T03:22:48.746Z,3.00
2018-03-29T03:25:15.690Z,3.00
2018-03-29T03:27:43.226Z,3.10
2018-03-29T03:30:09.897Z,3.10
2018-03-29T03:32:36.788Z,3.10
2018-03-29T03:35:03.510Z,3.10
2018-03-29T03:37:30.232Z,3.10
2018-03-29T03:39:56.607Z,3.20
2018-03-29T03:42:22.818Z,3.10
2018-03-29T03:44:49.090Z,3.20
2018-03-29T03:47:15.307Z,3.10
2018-03-29T03:49:41.599Z,3.20
2018-03-29T03:52:07.895Z,3.20
2018-03-29T03:54:34.904Z,3.20
2018-03-29T03:57:01.170Z,3.20
2018-03-29T03:59:28.124Z,3.20
2018-03-29T04:01:55.161Z,3.30
2018-03-29T04:04:22.106Z,3.20
2018-03-29T04:06:49.718Z,3.30
2018-03-29T04:09:16.776Z,3.20
2018-03-29T04:11:42.997Z,3.20
2018-03-29T04:14:09.966Z,3.30
2018-03-29T04:16:36.180Z,3.20
2018-03-29T04:19:02.393Z,3.30
2018-03-29T04:21:28.978Z,3.30
2018-03-29T04:23:55.310Z,3.30
2018-03-29T04:26:21.638Z,3.30
2018-03-29T04:28:47.907Z,3.30
2018-03-29T04:31:14.237Z,3.30
2018-03-29T04:33:40.936Z,3.40
2018-03-29T04:36:07.136Z,3.30
2018-03-29T04:38:33.372Z,3.30
2018-03-29T04:40:59.590Z,3.40
2018-03-29T04:43:25.830Z,3.40
2018-03-29T04:45:52.083Z,3.40
2018-03-29T04:48:18.362Z,3.40
2018-03-29T04:50:44.587Z,3.40
2018-03-29T04:53:10.818Z,3.40
2018-03-29T04:55:37.039Z,3.40
2018-03-29T04:58:03.398Z,3.40
2018-03-29T05:00:29.606Z,3.40
2018-03-29T05:02:55.923Z,3.40
2018-03-29T05:05:22.165Z,3.40
2018-03-29T05:07:48.485Z,3.50
2018-03-29T05:10:14.716Z,3.50
2018-03-29T05:12:40.995Z,3.40
2018-03-29T05:15:07.278Z,3.50
2018-03-29T05:17:33.537Z,3.50
2018-03-29T05:20:00.116Z,3.50
2018-03-29T05:22:26.354Z,3.50
2018-03-29T05:24:52.624Z,3.50
2018-03-29T05:27:19.676Z,3.50
2018-03-29T05:29:46.688Z,3.50
2018-03-29T05:32:12.902Z,3.50
2018-03-29T05:34:39.105Z,3.50
2018-03-29T05:37:05.471Z,3.50
2018-03-29T05:39:31.775Z,3.50
2018-03-29T05:41:58.055Z,3.50
2018-03-29T05:44:24.281Z,3.60
2018-03-29T05:46:50.627Z,3.50
2018-03-29T05:49:16.931Z,3.60
2018-03-29T05:51:43.166Z,3.60
2018-03-29T05:54:09.446Z,3.60
2018-03-29T05:56:36.479Z,3.60
2018-03-29T05:59:03.447Z,3.60
2018-03-29T06:01:29.671Z,3.60
2018-03-29T06:03:56.057Z,3.60
2018-03-29T06:06:22.291Z,3.60
2018-03-29T06:08:48.514Z,3.70
2018-03-29T06:11:14.735Z,3.70
2018-03-29T06:13:40.980Z,3.70
2018-03-29T06:16:07.239Z,3.70
2018-03-29T06:18:34.315Z,3.70
2018-03-29T06:21:00.630Z,3.70
2018-03-29T06:23:26.919Z,3.70
2018-03-29T06:25:53.498Z,3.80
2018-03-29T06:28:19.714Z,3.80
2018-03-29T06:30:46.794Z,3.80
2018-03-29T06:33:13.034Z,3.80
2018-03-29T06:35:39.278Z,3.80
2018-03-29T06:38:05.522Z,3.80
2018-03-29T06:40:31.733Z,3.80
2018-03-29T06:42:57.953Z,3.80
2018-03-29T06:45:24.174Z,3.90
2018-03-29T06:47:50.611Z,3.90
2018-03-29T06:50:17.306Z,3.90
2018-03-29T06:52:44.327Z,4.00
2018-03-29T06:55:10.563Z,4.00
2018-03-29T06:57:36.842Z,4.10
2018-03-29T07:00:03.120Z,4.10
2018-03-29T07:02:29.393Z,4.20
2018-03-29T07:04:55.750Z,4.20
2018-03-29T07:07:22.067Z,4.20
2018-03-29T07:09:48.288Z,4.20
2018-03-29T07:12:14.603Z,4.20
2018-03-29T07:14:41.559Z,4.30
2018-03-29T07:17:08.522Z,4.40
2018-03-29T07:19:34.758Z,4.40
2018-03-29T07:22:01.038Z,4.40
2018-03-29T07:24:27.720Z,4.50
2018-03-29T07:26:54.593Z,4.50
2018-03-29T07:29:21.345Z,4.60
2018-03-29T07:31:47.859Z,4.60
2018-03-29T07:34:15.101Z,4.60
2018-03-29T07:36:41.575Z,4.70
2018-03-29T07:39:08.098Z,4.70
2018-03-29T07:41:34.442Z,4.70
2018-03-29T07:44:00.695Z,4.80
2018-03-29T07:46:27.654Z,4.90
2018-03-29T07:48:53.899Z,4.90
2018-03-29T07:51:20.146Z,4.90
2018-03-29T07:53:46.365Z,5.00
2018-03-29T07:56:12.587Z,5.00
2018-03-29T07:58:38.819Z,5.00
2018-03-29T08:01:05.079Z,5.00
2018-03-29T08:03:31.302Z,5.10
2018-03-29T08:05:57.516Z,5.20
2018-03-29T08:08:23.744Z,5.20
2018-03-29T08:10:49.992Z,5.30
2018-03-29T08:13:17.085Z,5.30
2018-03-29T08:15:44.060Z,5.30
2018-03-29T08:18:10.344Z,5.30
2018-03-29T08:20:36.553Z,5.30
2018-03-29T08:23:03.118Z,5.30
2018-03-29T08:25:30.257Z,5.40
2018-03-29T08:27:56.548Z,5.40
2018-03-29T08:30:22.796Z,5.50
2018-03-29T08:32:49.762Z,5.60
2018-03-29T08:35:16.069Z,5.60
2018-03-29T08:37:42.286Z,5.60
2018-03-29T08:40:08.510Z,5.70
2018-03-29T08:42:34.737Z,5.70
2018-03-29T08:45:00.990Z,5.80
2018-03-29T08:47:28.046Z,5.80
2018-03-29T08:49:55.077Z,5.90
2018-03-29T08:52:21.354Z,5.90
2018-03-29T08:54:48.354Z,5.90
2018-03-29T08:57:14.633Z,6.00
2018-03-29T08:59:41.791Z,6.00
2018-03-29T09:02:08.761Z,6.10
2018-03-29T09:04:35.055Z,6.00
2018-03-29T09:07:02.079Z,6.00
2018-03-29T09:09:28.517Z,6.00
2018-03-29T09:11:54.712Z,6.00
2018-03-29T09:14:20.961Z,6.00
2018-03-29T09:16:47.276Z,6.10
2018-03-29T09:19:13.514Z,6.10
2018-03-29T09:21:39.855Z,6.10
2018-03-29T09:24:06.090Z,6.10
2018-03-29T09:26:32.356Z,6.10
2018-03-29T09:28:59.320Z,6.20
2018-03-29T09:31:25.645Z,6.20
2018-03-29T09:33:51.861Z,6.20
2018-03-29T09:36:18.827Z,6.30
2018-03-29T09:38:45.097Z,6.30
2018-03-29T09:41:11.328Z,6.30
2018-03-29T09:43:37.551Z,6.30
2018-03-29T09:46:03.834Z,6.40
2018-03-29T09:48:30.237Z,6.40
2018-03-29T09:50:56.521Z,6.40
2018-03-29T09:53:22.863Z,6.50
2018-03-29T09:55:49.088Z,6.50
2018-03-29T09:58:15.559Z,6.40
2018-03-29T10:00:41.808Z,6.50
2018-03-29T10:03:08.845Z,6.70
2018-03-29T10:05:37.692Z,6.70
2018-03-29T10:08:03.941Z,6.70
2018-03-29T10:10:30.237Z,6.80
2018-03-29T10:12:56.512Z,7.00
2018-03-29T10:15:22.736Z,7.00
2018-03-29T10:17:48.946Z,7.00
2018-03-29T10:20:15.215Z,7.00
2018-03-29T10:22:42.356Z,7.10
2018-03-29T10:25:08.632Z,7.10
2018-03-29T10:27:35.243Z,7.20
2018-03-29T10:30:02.260Z,7.20
2018-03-29T10:32:28.545Z,7.20
2018-03-29T10:34:54.794Z,7.20
2018-03-29T10:37:21.084Z,7.20
2018-03-29T10:39:48.089Z,7.30
2018-03-29T10:42:14.362Z,7.30
2018-03-29T10:44:41.384Z,7.40
2018-03-29T10:47:07.603Z,7.40
2018-03-29T10:49:33.821Z,7.50
2018-03-29T10:52:00.146Z,7.60
2018-03-29T10:54:26.369Z,7.60
2018-03-29T10:56:52.708Z,7.60
2018-03-29T10:59:19.066Z,7.60
2018-03-29T11:01:46.088Z,7.70
2018-03-29T11:04:12.388Z,7.60
2018-03-29T11:06:38.661Z,7.70
2018-03-29T11:09:04.861Z,7.70
2018-03-29T11:11:31.326Z,7.80
2018-03-29T11:13:57.843Z,7.80
2018-03-29T11:16:24.363Z,7.90
2018-03-29T11:18:50.749Z,7.90
2018-03-29T11:21:18.068Z,8.00
2018-03-29T11:23:44.456Z,8.00
2018-03-29T11:26:10.858Z,8.20
2018-03-29T11:28:37.112Z,8.20
2018-03-29T11:31:04.177Z,8.10
2018-03-29T11:33:30.614Z,8.20
2018-03-29T11:35:57.052Z,8.20
2018-03-29T11:38:23.442Z,8.10
2018-03-29T11:40:50.519Z,8.10
2018-03-29T11:43:16.771Z,8.10
2018-03-29T11:45:42.974Z,8.20
2018-03-29T11:48:10.022Z,8.10
2018-03-29T11:50:37.042Z,8.20
2018-03-29T11:53:03.384Z,8.20
2018-03-29T11:55:30.426Z,8.30
2018-03-29T11:57:57.390Z,8.30
2018-03-29T12:00:24.364Z,8.40
2018-03-29T12:02:50.612Z,8.40
2018-03-29T12:05:16.851Z,8.50
2018-03-29T12:07:43.147Z,8.50
2018-03-29T12:10:09.418Z,8.60
2018-03-29T12:12:35.691Z,8.50
2018-03-29T12:15:02.677Z,8.50
2018-03-29T12:17:35.996Z,8.50
2018-03-29T12:20:02.991Z,8.40
2018-03-29T12:22:30.067Z,8.30
2018-03-29T12:24:56.276Z,8.30
2018-03-29T12:27:22.550Z,8.30
2018-03-29T12:29:48.850Z,8.30
2018-03-29T12:32:15.663Z,8.30
2018-03-29T12:34:42.852Z,8.30
2018-03-29T12:37:09.784Z,8.30
2018-03-29T12:39:36.673Z,8.40
2018-03-29T12:42:03.918Z,8.40
2018-03-29T12:44:30.243Z,8.40
2018-03-29T12:46:56.801Z,8.40
2018-03-29T12:49:23.938Z,8.30
2018-03-29T12:51:50.550Z,8.40
2018-03-29T12:54:16.981Z,8.40
2018-03-29T12:56:55.770Z,8.50
2018-03-29T12:59:22.804Z,8.60
2018-03-29T13:01:50.182Z,8.50
2018-03-29T13:04:17.541Z,8.60
2018-03-29T13:06:43.806Z,8.70
2018-03-29T13:09:10.047Z,8.70
2018-03-29T13:11:36.289Z,8.70
2018-03-29T13:14:02.959Z,8.70
2018-03-29T13:16:29.918Z,8.70
2018-03-29T13:18:56.577Z,8.70
2018-03-29T13:21:22.806Z,8.80
2018-03-29T13:23:49.122Z,8.80
2018-03-29T13:26:15.420Z,8.80
2018-03-29T13:28:41.641Z,8.80
2018-03-29T13:31:07.921Z,8.80
2018-03-29T13:33:34.270Z,8.90
2018-03-29T13:36:00.486Z,8.90
2018-03-29T13:38:26.797Z,8.90
2018-03-29T13:40:54.932Z,8.90
2018-03-29T13:43:22.524Z,8.80
2018-03-29T13:45:48.836Z,8.80
2018-03-29T13:48:15.902Z,8.70
2018-03-29T13:50:42.862Z,8.80
2018-03-29T13:53:09.164Z,8.70
2018-03-29T13:55:35.391Z,8.80
2018-03-29T13:58:01.711Z,8.80
2018-03-29T14:00:28.062Z,8.80
2018-03-29T14:02:55.093Z,8.70
2018-03-29T14:05:22.165Z,8.70
2018-03-29T14:07:49.188Z,8.70
2018-03-29T14:10:15.414Z,8.70
2018-03-29T14:12:41.658Z,8.80
2018-03-29T14:15:08.629Z,8.70
2018-03-29T14:17:34.952Z,8.70
2018-03-29T14:20:01.964Z,8.60
2018-03-29T14:22:28.319Z,8.60
2018-03-29T14:24:55.427Z,8.50
2018-03-29T14:27:21.663Z,8.50
2018-03-29T14:29:47.912Z,8.50
2018-03-29T14:32:14.302Z,8.40
2018-03-29T14:34:40.733Z,8.30
2018-03-29T14:37:07.024Z,8.20
2018-03-29T14:39:34.260Z,8.00
2018-03-29T14:42:02.117Z,7.90
2018-03-29T14:44:29.079Z,7.90
2018-03-29T14:46:57.049Z,7.70
2018-03-29T14:49:24.040Z,7.70
2018-03-29T14:51:50.528Z,7.70
2018-03-29T14:54:16.764Z,7.70
2018-03-29T14:56:42.975Z,7.70
2018-03-29T14:59:09.618Z,7.70
2018-03-29T15:01:35.948Z,7.70
2018-03-29T15:04:02.163Z,7.60
2018-03-29T15:06:28.392Z,7.50
2018-03-29T15:08:54.689Z,7.50
2018-03-29T15:11:20.926Z,7.40
2018-03-29T15:13:47.179Z,7.30
2018-03-29T15:16:13.803Z,7.20
2018-03-29T15:18:40.063Z,7.10
2018-03-29T15:21:06.287Z,7.10
2018-03-29T15:23:32.590Z,7.00
2018-03-29T15:25:58.811Z,7.00
2018-03-29T15:28:25.053Z,7.00
2018-03-29T15:30:51.567Z,7.10
2018-03-29T15:33:18.070Z,7.20
2018-03-29T15:35:45.030Z,7.40
2018-03-29T15:38:12.101Z,7.50
2018-03-29T15:40:38.330Z,7.50
2018-03-29T15:43:04.655Z,7.60
2018-03-29T15:45:30.858Z,7.60
2018-03-29T15:47:58.284Z,7.70
2018-03-29T15:50:24.710Z,7.70
2018-03-29T15:52:50.927Z,7.70
2018-03-29T15:55:17.218Z,7.70
2018-03-29T15:57:44.202Z,7.70
2018-03-29T16:00:10.506Z,7.70
2018-03-29T16:02:36.724Z,7.70
2018-03-29T16:05:04.266Z,7.70
2018-03-29T16:07:31.369Z,7.60
2018-03-29T16:09:57.621Z,7.60
2018-03-29T16:12:24.270Z,7.60
2018-03-29T16:14:50.642Z,7.60
2018-03-29T16:17:16.887Z,7.60
2018-03-29T16:19:43.135Z,7.50
2018-03-29T16:22:10.301Z,7.50
2018-03-29T16:24:36.658Z,7.50
2018-03-29T16:27:02.883Z,7.40
2018-03-29T16:29:29.139Z,7.40
2018-03-29T16:31:56.096Z,7.30
2018-03-29T16:34:22.519Z,7.30
2018-03-29T16:36:49.866Z,7.20
2018-03-29T16:39:16.858Z,7.20
2018-03-29T16:41:43.118Z,7.10
2018-03-29T16:44:09.350Z,7.10
2018-03-29T16:46:35.670Z,7.10
2018-03-29T16:49:01.962Z,7.10
2018-03-29T16:51:28.546Z,7.10
2018-03-29T16:53:54.748Z,7.10
2018-03-29T16:56:20.995Z,7.10
2018-03-29T16:58:47.224Z,7.10
2018-03-29T17:01:13.497Z,7.10
2018-03-29T17:03:39.751Z,7.00
2018-03-29T17:06:06.018Z,7.00
2018-03-29T17:08:33.008Z,6.80
2018-03-29T17:10:59.246Z,6.80
2018-03-29T17:13:25.487Z,6.80
2018-03-29T17:15:52.039Z,6.70
2018-03-29T17:18:18.246Z,6.70
2018-03-29T17:20:44.459Z,6.60
2018-03-29T17:23:10.703Z,6.60
2018-03-29T17:25:37.230Z,6.60
2018-03-29T17:28:03.498Z,6.50
2018-03-29T17:30:29.849Z,6.50
2018-03-29T17:32:56.278Z,6.50
2018-03-29T17:35:22.498Z,6.50
2018-03-29T17:37:48.812Z,6.40
2018-03-29T17:40:15.781Z,6.40
2018-03-29T17:42:42.044Z,6.40
2018-03-29T17:45:08.301Z,6.30
2018-03-29T17:47:34.600Z,6.30
2018-03-29T17:50:01.544Z,6.20
2018-03-29T17:52:28.518Z,6.20
2018-03-29T17:54:54.798Z,6.20
2018-03-29T17:57:21.035Z,6.20
2018-03-29T17:59:48.155Z,6.10
2018-03-29T18:02:14.337Z,6.10
2018-03-29T18:04:41.297Z,6.00
2018-03-29T18:07:07.609Z,6.00
2018-03-29T18:09:34.368Z,5.90
2018-03-29T18:12:00.573Z,6.00
2018-03-29T18:14:27.585Z,5.90
2018-03-29T18:16:53.925Z,5.90
2018-03-29T18:19:20.150Z,5.90
2018-03-29T18:21:46.494Z,5.90
2018-03-29T18:24:12.753Z,5.80
2018-03-29T18:26:39.071Z,5.80
2018-03-29T18:29:05.366Z,5.80
2018-03-29T18:31:31.651Z,5.70
2018-03-29T18:33:58.367Z,5.70
2018-03-29T18:36:24.728Z,5.70
2018-03-29T18:38:51.754Z,5.50
2018-03-29T18:41:18.466Z,5.50
2018-03-29T18:43:44.712Z,5.50
2018-03-29T18:46:10.974Z,5.50
2018-03-29T18:48:37.289Z,5.40
2018-03-29T18:51:03.519Z,5.40
2018-03-29T18:53:29.730Z,5.40
2018-03-29T18:55:55.990Z,5.30
2018-03-29T18:58:23.013Z,5.30
2018-03-29T19:00:49.215Z,5.20
2018-03-29T19:03:15.481Z,5.20
2018-03-29T19:05:41.727Z,5.20
2018-03-29T19:08:08.721Z,5.10
2018-03-29T19:10:34.975Z,5.10
2018-03-29T19:13:01.271Z,5.10
2018-03-29T19:15:27.524Z,5.10
2018-03-29T19:17:59.222Z,5.10
2018-03-29T19:20:25.609Z,5.10
2018-03-29T19:22:51.871Z,5.10
2018-03-29T19:25:18.926Z,5.00
2018-03-29T19:27:46.022Z,5.00
2018-03-29T19:30:12.301Z,5.00
2018-03-29T19:32:39.291Z,4.90
2018-03-29T19:35:05.544Z,4.90
2018-03-29T19:37:31.790Z,4.90
2018-03-29T19:39:58.154Z,4.90
2018-03-29T19:42:24.516Z,4.80
2018-03-29T19:44:50.755Z,4.80
2018-03-29T19:47:17.010Z,4.70
2018-03-29T19:49:43.234Z,4.70
2018-03-29T19:52:09.679Z,4.70
2018-03-29T19:54:35.971Z,4.70
2018-03-29T19:57:02.316Z,4.70
2018-03-29T19:59:28.533Z,4.70
2018-03-29T20:01:54.798Z,4.60
2018-03-29T20:04:21.800Z,4.50
2018-03-29T20:06:48.054Z,4.50
2018-03-29T20:09:14.614Z,4.50
2018-03-29T20:11:40.925Z,4.50
2018-03-29T20:14:07.175Z,4.50
2018-03-29T20:16:33.789Z,4.40
2018-03-29T20:19:00.822Z,4.40
2018-03-29T20:21:27.051Z,4.30
2018-03-29T20:23:53.410Z,4.30
2018-03-29T20:26:19.612Z,4.30
2018-03-29T20:28:46.211Z,4.30
2018-03-29T20:31:13.164Z,4.20
2018-03-29T20:33:39.426Z,4.20
2018-03-29T20:36:05.676Z,4.20
2018-03-29T20:38:32.010Z,4.20
2018-03-29T20:40:58.258Z,4.10
2018-03-29T20:43:24.482Z,4.10
2018-03-29T20:45:50.757Z,4.10
2018-03-29T20:48:17.014Z,4.10
2018-03-29T20:50:43.238Z,4.00
2018-03-29T20:53:09.838Z,4.00
2018-03-29T20:55:36.060Z,4.00
2018-03-29T20:58:02.340Z,4.00
2018-03-29T21:00:28.709Z,3.90
2018-03-29T21:02:55.701Z,3.90
2018-03-29T21:05:21.943Z,3.90
2018-03-29T21:07:48.153Z,3.80
2018-03-29T21:10:14.768Z,3.80
2018-03-29T21:12:40.991Z,3.80
2018-03-29T21:15:07.967Z,3.80
2018-03-29T21:17:34.246Z,3.80
2018-03-29T21:20:00.481Z,3.80
2018-03-29T21:22:26.711Z,3.80
2018-03-29T21:24:53.705Z,3.80
2018-03-29T21:27:20.006Z,3.70
2018-03-29T21:29:46.948Z,3.70
2018-03-29T21:32:13.937Z,3.70
2018-03-29T21:34:40.231Z,3.70
2018-03-29T21:37:06.486Z,3.70
2018-03-29T21:39:32.719Z,3.60
2018-03-29T21:41:58.983Z,3.60
2018-03-29T21:44:25.328Z,3.60
2018-03-29T21:46:51.625Z,3.50
2018-03-29T21:49:17.874Z,3.50
2018-03-29T21:51:44.841Z,3.50
2018-03-29T21:54:11.814Z,3.50
2018-03-29T21:56:38.122Z,3.50
2018-03-29T21:59:05.090Z,3.40
2018-03-29T22:01:31.301Z,3.40
2018-03-29T22:03:58.345Z,3.40
2018-03-29T22:06:25.280Z,3.40
2018-03-29T22:08:52.261Z,3.40
2018-03-29T22:11:18.534Z,3.40
2018-03-29T22:13:49.454Z,3.30
2018-03-29T22:16:15.730Z,3.30
2018-03-29T22:18:42.682Z,3.30
2018-03-29T22:21:09.688Z,3.30
2018-03-29T22:23:35.917Z,3.30
2018-03-29T22:26:02.185Z,3.30
2018-03-29T22:28:29.156Z,3.30
2018-03-29T22:30:55.418Z,3.20
2018-03-29T22:33:21.692Z,3.20
2018-03-29T22:35:48.638Z,3.20
2018-03-29T22:38:15.622Z,3.20
2018-03-29T22:40:41.835Z,3.20
2018-03-29T22:43:08.042Z,3.20
2018-03-29T22:45:34.993Z,3.20
2018-03-29T22:48:01.305Z,3.20
2018-03-29T22:50:27.518Z,3.20
2018-03-29T22:52:53.746Z,3.20
2018-03-29T22:55:20.161Z,3.10
2018-03-29T22:57:46.388Z,3.10
2018-03-29T23:00:12.679Z,3.10
2018-03-29T23:02:38.901Z,3.10
2018-03-29T23:05:06.236Z,3.00
2018-03-29T23:07:32.446Z,3.00
2018-03-29T23:09:58.692Z,3.00
2018-03-29T23:12:24.910Z,3.00
2018-03-29T23:14:51.211Z,3.00
2018-03-29T23:17:17.907Z,2.90
2018-03-29T23:19:44.905Z,2.90
2018-03-29T23:22:11.166Z,2.90
2018-03-29T23:24:37.393Z,2.90
2018-03-29T23:27:03.624Z,2.90
2018-03-29T23:29:29.934Z,2.90
2018-03-29T23:31:56.595Z,2.80
2018-03-29T23:34:22.848Z,2.80
2018-03-29T23:36:49.844Z,2.70
2018-03-29T23:39:16.152Z,2.80
2018-03-29T23:41:42.364Z,2.70
2018-03-29T23:44:08.743Z,2.70
2018-03-29T23:46:35.002Z,2.70
2018-03-29T23:49:01.294Z,2.70
2018-03-29T23:51:27.497Z,2.60
2018-03-29T23:53:53.843Z,2.60
2018-03-29T23:56:20.135Z,2.60
2018-03-29T23:58:47.102Z,2.60
